Choctaw, Arkansas
Current Conditions -  °F | °C
As of 9:53 AM on Tuesday 21 Oct 2014 (Local Time) from KRUE Reporting Station
Moderate Fog Moderate Fog  
Wind Chill: 14°   Ceiling: 100
Heat Index: 14°   Visibility: 0.25mi
Dew Point: 13°   Wind: 0mph
Humidity: 96%   Direction: NA
Pressure: 30.15"   Gusts: NA
Location:  35.53°N, 92.44°W
Report Text: KRUE 211453Z AUTO 00000KT 1/4SM FG VV001 14/13 A3015 RMK AO2 SLP205 T01390133 53015
Loading
Personal Weather Stations






























Interactive Weather Map
Tropical Storm Tracking
New forecast layout! Learn more

10-Day Weather Forecast

Advertisements
Track Severe Weather on mobile